Главная страница
METAR-TAF:

METAR-TAF

Аэропорты :

Тунис-Карфаген

Тунис, Тунис

широта: 36-50N, долгота: 010-14E, высота над уровнем моря: 3 м

Текущие метеонаблюдения

Эта сводка был подготовлена 20 минут назад, в 11:30 UTC
Ветер 6 Узел от северо-восточный, изменяющийся между северный и восточно-юго-восточный
Температура 31°C
Влажность 38%
Давление 1016 hPa
Видимость 10 км и более
Нет облачности ниже 1500 м, и нет кучево-дождевой облачности

METAR: DTTA 211130Z 05006KT 010V110 CAVOK 31/15 Q1016 NOSIG

Время: 12:50 (11:50 UTC)

Прогноз

Эта сводка был подготовлена 1 час и 7 минут назад, в 10:43 UTC
Прогноз действительный с 21-го 12 UTC до 22-го 12 UTC
Ветер 10 Узел от восточный
Видимость 10 км и более
Нет облачности ниже 1500 м, и нет кучево-дождевой облачности

TAF: DTTA 211043Z 2112/2212 08010KT CAVOK

Метеонаблюдения и прогнозы для более 4000 аэропортов (сводки METAR и TAF).

Имеющиеся станции представлены на карте желтыми и красными точками.

Чтобы увидеть название станции, наведите на нее мышь.

Затем щелкните, чтобы увидеть метеонаблюдения и метеопрогнозы.

Управление картой: чтобы увеличить масштаб, щелкните зеленые кнопки с черным крестиком; чтобы уменьшить масштаб, щелкните зеленую кнопку с тире; для просмотра соседних карт щелкайте зеленые стрелки.


METAR-TAF: